createdAt,value
2023-01-13T00:01:00.545Z,0.80
2023-01-13T00:03:27.394Z,0.95
2023-01-13T00:05:54.005Z,1.17
2023-01-13T00:08:20.594Z,0.93
2023-01-13T00:10:48.500Z,0.73
2023-01-13T00:13:15.342Z,1.02
2023-01-13T00:15:42.245Z,2.13
2023-01-13T00:18:09.004Z,2.17
2023-01-13T00:20:35.542Z,1.27
2023-01-13T00:23:02.122Z,1.65
2023-01-13T00:25:28.995Z,0.43
2023-01-13T00:27:55.688Z,0.70
2023-01-13T00:30:22.492Z,1.00
2023-01-13T00:32:49.081Z,0.95
2023-01-13T00:35:15.862Z,0.50
2023-01-13T00:37:42.514Z,1.98
2023-01-13T00:40:09.921Z,1.63
2023-01-13T00:42:55.043Z,1.65
2023-01-13T00:45:21.597Z,1.95
2023-01-13T00:47:48.251Z,1.67
2023-01-13T00:50:15.002Z,2.10
2023-01-13T00:52:42.346Z,1.48
2023-01-13T00:55:09.241Z,3.42
2023-01-13T00:57:35.788Z,4.20
2023-01-13T01:00:02.662Z,4.90
2023-01-13T01:02:29.327Z,3.53
2023-01-13T01:04:55.963Z,4.22
2023-01-13T01:07:22.563Z,3.13
2023-01-13T01:09:49.799Z,3.10
2023-01-13T01:12:16.423Z,4.75
2023-01-13T01:14:43.004Z,5.30
2023-01-13T01:17:09.613Z,4.97
2023-01-13T01:19:38.959Z,6.47
2023-01-13T01:22:05.683Z,4.85
2023-01-13T01:24:32.322Z,3.90
2023-01-13T01:26:58.949Z,5.60
2023-01-13T01:29:25.547Z,4.97
2023-01-13T01:31:52.101Z,5.40
2023-01-13T01:34:18.763Z,5.78
2023-01-13T01:36:45.413Z,6.63
2023-01-13T01:39:12.001Z,9.98
2023-01-13T01:41:38.873Z,5.40
2023-01-13T01:44:43.395Z,5.97
2023-01-13T01:47:15.093Z,6.57
2023-01-13T01:49:44.219Z,11.30
2023-01-13T01:52:31.471Z,7.30
2023-01-13T01:55:14.866Z,4.45
2023-01-13T01:57:41.493Z,6.63
2023-01-13T02:00:09.378Z,5.88
2023-01-13T02:02:40.819Z,6.38
2023-01-13T02:05:07.936Z,5.10
2023-01-13T02:07:36.383Z,10.48
2023-01-13T02:10:06.314Z,6.30
2023-01-13T02:12:33.415Z,4.82
2023-01-13T02:15:05.322Z,6.95
2023-01-13T02:17:51.513Z,9.32
2023-01-13T02:20:23.795Z,7.40
2023-01-13T02:23:02.609Z,8.65
2023-01-13T02:25:47.266Z,5.47
2023-01-13T02:29:15.513Z,5.00
2023-01-13T02:31:48.446Z,6.57
2023-01-13T02:34:23.681Z,5.35
2023-01-13T02:36:59.913Z,3.95
2023-01-13T02:39:59.898Z,6.22
2023-01-13T02:43:11.561Z,4.68
2023-01-13T02:45:48.847Z,5.05
2023-01-13T02:48:17.992Z,4.90
2023-01-13T02:50:50.328Z,4.07
2023-01-13T02:53:30.075Z,4.60
2023-01-13T02:56:01.427Z,6.32
2023-01-13T02:58:30.453Z,3.25
2023-01-13T03:00:58.091Z,3.88
2023-01-13T03:03:24.773Z,2.92
2023-01-13T03:05:55.839Z,6.97
2023-01-13T03:08:47.841Z,6.43
2023-01-13T03:11:19.959Z,6.55
2023-01-13T03:13:58.532Z,4.32
2023-01-13T03:16:38.216Z,5.63
2023-01-13T03:19:07.695Z,4.82
2023-01-13T03:21:53.134Z,7.03
2023-01-13T03:24:44.561Z,6.93
2023-01-13T03:27:40.414Z,4.97
2023-01-13T03:30:19.019Z,4.85
2023-01-13T03:32:50.558Z,7.07
2023-01-13T03:35:25.771Z,2.70
2023-01-13T03:38:01.890Z,4.18
2023-01-13T03:40:35.505Z,7.45
2023-01-13T03:43:28.125Z,2.95
2023-01-13T03:45:59.732Z,10.82
2023-01-13T03:48:29.361Z,4.50
2023-01-13T03:51:02.621Z,4.25
2023-01-13T03:53:33.323Z,5.05
2023-01-13T03:56:07.152Z,9.38
2023-01-13T03:58:40.034Z,6.07
2023-01-13T04:01:21.623Z,8.40
2023-01-13T04:03:57.263Z,8.23
2023-01-13T04:06:38.033Z,3.70
2023-01-13T04:09:25.723Z,6.95
2023-01-13T04:11:59.608Z,7.10
2023-01-13T04:14:28.028Z,4.55
2023-01-13T04:19:22.008Z,7.22
2023-01-13T04:21:48.412Z,5.30
2023-01-13T04:24:15.078Z,4.07
2023-01-13T04:26:41.746Z,7.80
2023-01-13T04:29:09.391Z,6.43
2023-01-13T04:31:35.917Z,5.82
2023-01-13T04:34:02.392Z,2.60
2023-01-13T04:36:29.059Z,4.10
2023-01-13T04:38:55.623Z,7.85
2023-01-13T04:41:22.395Z,5.60
2023-01-13T04:43:49.025Z,11.43
2023-01-13T04:46:15.688Z,11.18
2023-01-13T04:48:42.094Z,10.48
2023-01-13T04:51:08.638Z,7.60
2023-01-13T04:53:35.315Z,8.00
2023-01-13T04:56:01.800Z,12.70
2023-01-13T04:58:28.237Z,9.00
2023-01-13T05:00:55.384Z,6.18
2023-01-13T05:03:21.867Z,12.55
2023-01-13T05:05:51.311Z,9.50
2023-01-13T05:08:17.840Z,12.60
2023-01-13T05:10:44.239Z,5.47
2023-01-13T05:13:29.060Z,7.75
2023-01-13T05:16:14.050Z,8.13
2023-01-13T05:18:40.565Z,9.88
2023-01-13T05:21:26.950Z,13.25
2023-01-13T05:24:11.919Z,5.32
2023-01-13T05:26:38.402Z,8.98
2023-01-13T05:29:04.845Z,9.52
2023-01-13T05:31:31.639Z,7.43
2023-01-13T05:33:58.140Z,6.13
2023-01-13T05:36:24.816Z,9.50
2023-01-13T05:38:51.704Z,7.97
2023-01-13T05:41:36.798Z,10.45
2023-01-13T05:44:03.549Z,7.28
2023-01-13T05:46:30.030Z,8.20
2023-01-13T05:48:56.444Z,8.82
2023-01-13T05:51:26.268Z,9.75
2023-01-13T05:53:52.890Z,9.95
2023-01-13T05:56:19.335Z,11.65
2023-01-13T05:58:45.847Z,6.68
2023-01-13T06:01:12.291Z,12.02
2023-01-13T06:03:38.760Z,9.30
2023-01-13T06:06:05.258Z,11.63
2023-01-13T06:08:32.503Z,7.72
2023-01-13T06:10:59.009Z,10.23
2023-01-13T06:13:25.728Z,10.05
2023-01-13T06:15:55.938Z,7.60
2023-01-13T06:18:22.747Z,12.18
2023-01-13T06:20:49.521Z,9.18
2023-01-13T06:23:16.116Z,10.75
2023-01-13T06:26:10.386Z,5.47
2023-01-13T06:28:37.131Z,7.57
2023-01-13T06:31:07.326Z,5.88
2023-01-13T06:33:38.402Z,7.63
2023-01-13T06:36:12.355Z,10.60
2023-01-13T06:38:47.860Z,9.98
2023-01-13T06:41:14.717Z,7.95
2023-01-13T06:43:41.583Z,6.38
2023-01-13T06:46:08.331Z,9.68
2023-01-13T06:48:35.367Z,8.23
2023-01-13T06:51:03.879Z,8.52
2023-01-13T06:53:30.525Z,7.90
2023-01-13T06:55:57.519Z,10.95
2023-01-13T06:58:24.123Z,6.22
2023-01-13T07:00:51.668Z,8.55
2023-01-13T07:03:19.872Z,10.05
2023-01-13T07:05:56.112Z,7.18
2023-01-13T07:08:24.184Z,7.78
2023-01-13T07:10:51.436Z,7.90
2023-01-13T07:13:37.168Z,8.07
2023-01-13T07:16:06.031Z,8.57
2023-01-13T07:18:34.508Z,10.20
2023-01-13T07:21:18.969Z,8.70
2023-01-13T07:23:46.581Z,9.43
2023-01-13T07:26:13.783Z,6.57
2023-01-13T07:28:40.933Z,8.02
2023-01-13T07:31:14.550Z,6.70
2023-01-13T07:33:41.239Z,5.10
2023-01-13T07:36:08.601Z,11.45
2023-01-13T07:38:35.762Z,5.80
2023-01-13T07:41:21.275Z,6.97
2023-01-13T07:43:48.233Z,6.10
2023-01-13T07:46:14.988Z,6.55
2023-01-13T07:48:41.790Z,7.80
2023-01-13T07:51:10.204Z,7.03
2023-01-13T07:53:37.066Z,4.88
2023-01-13T07:56:04.972Z,7.57
2023-01-13T07:58:33.971Z,5.55
2023-01-13T08:01:00.766Z,7.35
2023-01-13T08:03:27.391Z,8.65
2023-01-13T08:05:53.860Z,4.55
2023-01-13T08:08:20.395Z,11.65
2023-01-13T08:10:47.014Z,13.20
2023-01-13T08:13:20.132Z,9.25
2023-01-13T08:15:49.850Z,9.50
2023-01-13T08:18:20.759Z,9.23
2023-01-13T08:20:52.550Z,9.57
2023-01-13T08:23:21.020Z,6.85
2023-01-13T08:25:48.262Z,11.60
2023-01-13T08:28:16.375Z,9.13
2023-01-13T08:30:43.795Z,5.65
2023-01-13T08:33:12.632Z,10.45
2023-01-13T08:35:42.506Z,9.48
2023-01-13T08:38:09.528Z,4.85
2023-01-13T08:40:36.892Z,10.23
2023-01-13T08:43:03.487Z,5.05
2023-01-13T08:45:30.397Z,8.65
2023-01-13T08:47:57.060Z,9.30
2023-01-13T08:50:23.576Z,6.38
2023-01-13T08:52:50.006Z,5.10
2023-01-13T08:55:16.564Z,4.43
2023-01-13T08:57:42.966Z,15.05
2023-01-13T09:00:10.513Z,8.60
2023-01-13T09:02:38.399Z,8.20
2023-01-13T09:05:07.478Z,7.57
2023-01-13T09:07:37.064Z,10.27
2023-01-13T09:10:05.654Z,8.02
2023-01-13T09:12:50.792Z,11.85
2023-01-13T09:15:20.383Z,11.90
2023-01-13T09:17:48.001Z,7.38
2023-01-13T09:20:14.783Z,10.07
2023-01-13T09:22:41.522Z,7.68
2023-01-13T09:25:08.735Z,12.80
2023-01-13T09:27:35.238Z,10.50
2023-01-13T09:30:02.001Z,12.55
2023-01-13T09:32:28.453Z,9.43
2023-01-13T09:35:00.903Z,9.48
2023-01-13T09:37:41.529Z,8.93
2023-01-13T09:40:17.376Z,10.63
2023-01-13T09:43:19.755Z,11.88
2023-01-13T09:46:05.868Z,16.90
2023-01-13T09:48:51.829Z,14.32
2023-01-13T09:51:30.495Z,13.73
2023-01-13T09:54:06.155Z,12.30
2023-01-13T09:56:32.756Z,13.73
2023-01-13T09:58:59.374Z,13.80
2023-01-13T10:01:45.456Z,14.90
2023-01-13T10:04:14.350Z,14.13
2023-01-13T10:06:44.240Z,13.48
2023-01-13T10:09:33.977Z,11.00
2023-01-13T10:12:21.337Z,18.20
2023-01-13T10:14:57.377Z,16.48
2023-01-13T10:17:53.283Z,13.13
2023-01-13T10:20:26.923Z,10.93
2023-01-13T10:23:21.712Z,20.17
2023-01-13T10:26:25.370Z,15.00
2023-01-13T10:28:53.490Z,13.10
2023-01-13T10:31:22.202Z,13.35
2023-01-13T10:36:21.527Z,9.05
2023-01-13T10:38:49.975Z,15.70
2023-01-13T10:41:16.620Z,11.70
2023-01-13T10:43:59.749Z,13.75
2023-01-13T10:46:26.906Z,17.92
2023-01-13T10:49:17.645Z,14.90
2023-01-13T10:51:46.076Z,16.05
2023-01-13T10:54:13.104Z,17.63
2023-01-13T10:56:44.966Z,11.00
2023-01-13T10:59:14.890Z,13.02
2023-01-13T11:01:45.701Z,12.38
2023-01-13T11:04:58.288Z,13.25
2023-01-13T11:07:38.691Z,12.57
2023-01-13T11:10:27.890Z,10.13
2023-01-13T11:13:18.391Z,19.35
2023-01-13T11:15:55.419Z,13.10
2023-01-13T11:18:26.634Z,13.77
2023-01-13T11:20:56.157Z,15.07
2023-01-13T11:23:55.358Z,16.25
2023-01-13T11:26:27.138Z,22.00
2023-01-13T11:29:02.485Z,13.85
2023-01-13T11:31:41.057Z,12.68
2023-01-13T11:34:10.384Z,10.40
2023-01-13T11:36:46.232Z,16.33
2023-01-13T11:39:21.335Z,10.77
2023-01-13T11:44:49.347Z,13.70
2023-01-13T11:47:20.973Z,17.30
2023-01-13T11:49:48.732Z,19.85
2023-01-13T11:52:33.035Z,12.27
2023-01-13T11:55:09.776Z,8.63
2023-01-13T11:57:47.395Z,12.50
2023-01-13T12:00:32.524Z,13.07
2023-01-13T12:03:26.962Z,13.77
2023-01-13T12:08:55.214Z,16.20
2023-01-13T12:11:26.736Z,14.10
2023-01-13T12:14:02.415Z,11.27
2023-01-13T12:16:30.599Z,12.90
2023-01-13T12:19:27.819Z,13.13
2023-01-13T12:22:04.013Z,14.85
2023-01-13T12:24:52.836Z,12.65
2023-01-13T12:27:28.888Z,14.77
2023-01-13T12:29:59.745Z,15.65
2023-01-13T12:32:36.485Z,11.23
2023-01-13T12:35:27.490Z,12.02
2023-01-13T12:38:04.297Z,8.40
2023-01-13T12:41:00.969Z,7.15
2023-01-13T12:43:47.081Z,8.40
2023-01-13T12:46:21.138Z,8.07
2023-01-13T12:48:59.631Z,9.05
2023-01-13T12:51:34.867Z,8.82
2023-01-13T12:56:37.857Z,9.93
2023-01-13T12:59:17.080Z,8.48
2023-01-13T13:01:46.329Z,10.48
2023-01-13T13:04:15.012Z,9.82
2023-01-13T13:06:46.021Z,13.20
2023-01-13T13:09:46.912Z,14.35
2023-01-13T13:12:51.337Z,11.40
2023-01-13T13:15:29.535Z,10.85
2023-01-13T13:17:59.138Z,12.45
2023-01-13T13:21:05.589Z,14.23
2023-01-13T13:23:48.560Z,12.82
2023-01-13T13:26:21.008Z,10.15
2023-01-13T13:29:12.540Z,11.80
2023-01-13T13:31:44.960Z,12.30
2023-01-13T13:34:28.620Z,10.23
2023-01-13T13:37:19.862Z,16.73
2023-01-13T13:40:05.149Z,12.88
2023-01-13T13:43:01.966Z,18.52
2023-01-13T13:45:48.727Z,8.32
2023-01-13T13:48:34.266Z,12.45
2023-01-13T13:51:04.820Z,13.75
2023-01-13T13:53:39.177Z,13.43
2023-01-13T13:56:17.776Z,16.92
2023-01-13T13:58:47.209Z,10.50
2023-01-13T14:01:29.644Z,10.70
2023-01-13T14:04:14.048Z,12.32
2023-01-13T14:06:58.962Z,12.93
2023-01-13T14:09:38.751Z,13.50
2023-01-13T14:12:09.224Z,11.45
2023-01-13T14:14:35.834Z,12.55
2023-01-13T14:17:05.057Z,10.05
2023-01-13T14:19:35.485Z,11.85
2023-01-13T14:22:05.005Z,9.77
2023-01-13T14:24:32.801Z,14.10
2023-01-13T14:27:17.555Z,15.93
2023-01-13T14:29:44.919Z,11.00
2023-01-13T14:32:17.359Z,11.10
2023-01-13T14:34:43.973Z,14.73
2023-01-13T14:37:33.204Z,12.27
2023-01-13T14:39:59.731Z,8.63
2023-01-13T14:42:28.211Z,13.43
2023-01-13T14:44:56.238Z,15.25
2023-01-13T14:47:27.991Z,13.85
2023-01-13T14:50:03.774Z,11.65
2023-01-13T14:52:34.734Z,12.43
2023-01-13T14:55:08.890Z,10.85
2023-01-13T14:57:40.182Z,13.80
2023-01-13T15:00:15.823Z,12.63
2023-01-13T15:02:43.711Z,13.73
2023-01-13T15:05:19.273Z,9.13
2023-01-13T15:08:12.319Z,13.18
2023-01-13T15:10:52.956Z,10.40
2023-01-13T15:13:26.347Z,10.52
2023-01-13T15:16:01.287Z,8.82
2023-01-13T15:18:28.001Z,10.88
2023-01-13T15:20:54.524Z,9.70
2023-01-13T15:23:21.725Z,10.52
2023-01-13T15:25:49.346Z,10.50
2023-01-13T15:28:22.950Z,8.15
2023-01-13T15:30:51.440Z,10.90
2023-01-13T15:33:19.992Z,14.20
2023-01-13T15:35:52.408Z,6.78
2023-01-13T15:38:22.235Z,11.30
2023-01-13T15:40:50.820Z,8.05
2023-01-13T15:43:41.607Z,10.43
2023-01-13T15:46:35.944Z,11.65
2023-01-13T15:49:09.906Z,7.55
2023-01-13T15:51:38.914Z,19.33
2023-01-13T15:54:09.195Z,15.27
2023-01-13T15:56:38.874Z,13.30
2023-01-13T15:59:10.521Z,7.00
2023-01-13T16:01:37.082Z,12.15
2023-01-13T16:04:03.615Z,10.10
2023-01-13T16:06:36.424Z,12.18
2023-01-13T16:09:04.359Z,8.57
2023-01-13T16:11:30.948Z,9.52
2023-01-13T16:13:58.159Z,9.57
2023-01-13T16:16:27.417Z,10.35
2023-01-13T16:18:54.794Z,9.38
2023-01-13T16:21:24.462Z,7.35
2023-01-13T16:23:51.945Z,9.02
2023-01-13T16:26:22.151Z,15.05
2023-01-13T16:28:50.432Z,8.65
2023-01-13T16:31:25.145Z,10.45
2023-01-13T16:33:52.282Z,11.10
2023-01-13T16:36:20.206Z,10.55
2023-01-13T16:38:47.691Z,11.15
2023-01-13T16:41:14.628Z,11.40
2023-01-13T16:43:41.352Z,9.88
2023-01-13T16:46:23.648Z,13.45
2023-01-13T16:48:53.085Z,13.30
2023-01-13T16:51:20.666Z,9.77
2023-01-13T16:53:48.718Z,10.10
2023-01-13T16:56:32.994Z,8.85
2023-01-13T16:59:05.513Z,13.15
2023-01-13T17:01:35.548Z,11.23
2023-01-13T17:04:02.908Z,11.95
2023-01-13T17:06:37.126Z,12.40
2023-01-13T17:09:33.059Z,23.55
2023-01-13T17:12:00.322Z,7.50
2023-01-13T17:14:27.235Z,11.73
2023-01-13T17:16:57.150Z,10.65
2023-01-13T17:19:24.231Z,9.20
2023-01-13T17:21:51.273Z,8.75
2023-01-13T17:24:18.444Z,16.35
2023-01-13T17:26:50.748Z,11.98
2023-01-13T17:29:25.914Z,10.77
2023-01-13T17:34:21.028Z,12.85
2023-01-13T17:36:48.006Z,11.57
2023-01-13T17:39:20.247Z,11.07
2023-01-13T17:41:48.224Z,17.05
2023-01-13T17:44:17.131Z,11.82
2023-01-13T17:46:44.432Z,14.15
2023-01-13T17:49:14.288Z,15.55
2023-01-13T17:51:40.839Z,12.85
2023-01-13T17:54:11.996Z,10.32
2023-01-13T17:56:39.970Z,11.05
2023-01-13T17:59:06.728Z,8.73
2023-01-13T18:01:34.180Z,12.55
2023-01-13T18:04:00.905Z,7.95
2023-01-13T18:06:28.390Z,14.32
2023-01-13T18:08:55.786Z,14.55
2023-01-13T18:11:22.826Z,14.48
2023-01-13T18:13:51.542Z,11.65
2023-01-13T18:18:47.667Z,6.90
2023-01-13T18:21:39.140Z,11.32
2023-01-13T18:24:25.556Z,13.30
2023-01-13T18:27:10.933Z,9.82
2023-01-13T18:29:37.362Z,14.95
2023-01-13T18:32:04.245Z,12.75
2023-01-13T18:34:30.738Z,8.13
2023-01-13T18:36:57.350Z,14.23
2023-01-13T18:39:23.818Z,15.50
2023-01-13T18:42:09.217Z,10.18
2023-01-13T18:44:35.673Z,9.57
2023-01-13T18:47:02.385Z,13.10
2023-01-13T18:49:28.871Z,10.88
2023-01-13T18:51:55.642Z,8.88
2023-01-13T18:54:22.601Z,12.68
2023-01-13T18:56:49.643Z,15.10
2023-01-13T18:59:17.134Z,11.43
2023-01-13T19:01:44.173Z,13.60
2023-01-13T19:04:15.723Z,13.63
2023-01-13T19:06:53.481Z,15.23
2023-01-13T19:09:28.779Z,13.75
2023-01-13T19:11:56.622Z,15.73
2023-01-13T19:14:37.242Z,10.45
2023-01-13T19:17:09.881Z,15.88
2023-01-13T19:19:39.522Z,12.15
2023-01-13T19:22:07.148Z,12.02
2023-01-13T19:24:34.130Z,8.30
2023-01-13T19:27:01.066Z,11.75
2023-01-13T19:29:27.785Z,12.25
2023-01-13T19:31:54.424Z,11.65
2023-01-13T19:34:22.713Z,9.98
2023-01-13T19:36:51.565Z,9.27
2023-01-13T19:39:18.494Z,8.77
2023-01-13T19:42:04.191Z,14.57
2023-01-13T19:44:48.939Z,10.65
2023-01-13T19:47:17.320Z,11.23
2023-01-13T19:49:43.881Z,12.20
2023-01-13T19:52:11.381Z,9.48
2023-01-13T19:54:38.254Z,16.40
2023-01-13T19:57:05.213Z,10.77
2023-01-13T19:59:33.052Z,12.20
2023-01-13T20:02:01.291Z,12.57
2023-01-13T20:04:38.211Z,10.98
2023-01-13T20:07:08.080Z,11.85
2023-01-13T20:09:35.661Z,16.90
2023-01-13T20:12:08.801Z,14.80
2023-01-13T20:14:35.320Z,7.53
2023-01-13T20:17:03.092Z,14.07
2023-01-13T20:19:29.631Z,14.05
2023-01-13T20:21:56.394Z,11.80
2023-01-13T20:24:24.557Z,10.75
2023-01-13T20:26:51.446Z,13.57
2023-01-13T20:29:17.976Z,10.65
2023-01-13T20:31:44.524Z,12.70
2023-01-13T20:34:11.181Z,10.50
2023-01-13T20:36:38.908Z,13.80
2023-01-13T20:39:08.362Z,11.02
2023-01-13T20:41:53.808Z,15.68
2023-01-13T20:44:20.424Z,9.15
2023-01-13T20:46:47.077Z,18.95
2023-01-13T20:49:15.256Z,13.55
2023-01-13T20:51:42.993Z,16.73
2023-01-13T20:54:09.421Z,11.95
2023-01-13T20:56:36.921Z,12.50
2023-01-13T20:59:04.199Z,14.63
2023-01-13T21:01:32.285Z,16.55
2023-01-13T21:04:00.124Z,14.32
2023-01-13T21:06:28.578Z,14.35
2023-01-13T21:08:55.516Z,11.95
2023-01-13T21:11:42.597Z,11.48
2023-01-13T21:14:39.678Z,14.68
2023-01-13T21:17:07.474Z,19.00
2023-01-13T21:19:34.120Z,12.63
2023-01-13T21:22:00.773Z,18.60
2023-01-13T21:24:27.546Z,14.57
2023-01-13T21:27:00.165Z,12.32
2023-01-13T21:29:26.797Z,13.88
2023-01-13T21:31:54.580Z,10.95
2023-01-13T21:34:21.482Z,16.55
2023-01-13T21:36:47.879Z,15.63
2023-01-13T21:39:16.142Z,11.82
2023-01-13T21:42:01.152Z,15.18
2023-01-13T21:44:46.042Z,16.58
2023-01-13T21:47:36.932Z,17.27
2023-01-13T21:50:06.483Z,17.52
2023-01-13T21:52:33.205Z,16.90
2023-01-13T21:55:19.587Z,14.13
2023-01-13T21:58:11.718Z,20.58
2023-01-13T22:00:40.076Z,18.45
2023-01-13T22:03:08.959Z,18.38
2023-01-13T22:05:36.314Z,13.40
2023-01-13T22:08:03.475Z,19.55
2023-01-13T22:10:32.125Z,19.23
2023-01-13T22:13:21.354Z,15.48
2023-01-13T22:15:48.078Z,23.25
2023-01-13T22:18:15.051Z,15.45
2023-01-13T22:20:41.992Z,16.42
2023-01-13T22:23:08.562Z,15.15
2023-01-13T22:25:35.308Z,16.20
2023-01-13T22:28:05.910Z,13.68
2023-01-13T22:30:33.328Z,17.38
2023-01-13T22:33:00.176Z,19.73
2023-01-13T22:35:27.312Z,20.88
2023-01-13T22:37:53.825Z,23.35
2023-01-13T22:40:20.417Z,16.55
2023-01-13T22:42:47.213Z,13.85
2023-01-13T22:45:14.490Z,18.13
2023-01-13T22:47:41.442Z,18.02
2023-01-13T22:50:09.049Z,18.10
2023-01-13T22:52:36.108Z,20.80
2023-01-13T22:55:02.735Z,18.52
2023-01-13T22:57:36.604Z,12.27
2023-01-13T23:00:10.424Z,20.40
2023-01-13T23:02:38.481Z,19.92
2023-01-13T23:05:05.355Z,17.75
2023-01-13T23:07:31.832Z,15.18
2023-01-13T23:09:58.355Z,18.35
2023-01-13T23:12:24.802Z,20.52
2023-01-13T23:14:51.382Z,18.70
2023-01-13T23:17:17.851Z,21.08
2023-01-13T23:19:44.597Z,14.63
2023-01-13T23:22:11.099Z,15.02
2023-01-13T23:24:37.730Z,15.95
2023-01-13T23:27:04.195Z,16.83
2023-01-13T23:29:30.664Z,18.45
2023-01-13T23:31:57.280Z,16.27
2023-01-13T23:34:23.686Z,19.52
2023-01-13T23:36:50.339Z,16.33
2023-01-13T23:39:16.963Z,23.83
2023-01-13T23:41:43.404Z,12.85
2023-01-13T23:44:10.061Z,24.08
2023-01-13T23:46:36.644Z,20.85
2023-01-13T23:49:03.694Z,20.05
2023-01-13T23:51:30.466Z,20.95
2023-01-13T23:53:58.637Z,18.45
2023-01-13T23:56:28.598Z,17.85
2023-01-13T23:58:55.499Z,18.20
